createdAt,value
2023-03-23T15:58:21.253Z,17.21
2023-03-23T15:59:22.044Z,17.19
2023-03-23T16:00:21.239Z,17.18
2023-03-23T16:01:21.284Z,17.18
2023-03-23T16:02:21.374Z,17.15
2023-03-23T16:03:22.065Z,17.16
2023-03-23T16:04:21.384Z,17.18
2023-03-23T16:05:21.241Z,17.18
2023-03-23T16:06:24.914Z,17.15
2023-03-23T16:07:21.330Z,17.15
2023-03-23T16:08:21.967Z,17.15
2023-03-23T16:09:21.956Z,17.12
2023-03-23T16:10:21.120Z,17.14
2023-03-23T16:11:21.093Z,17.11
2023-03-23T16:12:21.103Z,17.03
2023-03-23T16:13:21.086Z,16.96
2023-03-23T16:14:21.081Z,16.93
2023-03-23T16:15:21.078Z,16.94
2023-03-23T16:16:21.238Z,16.96
2023-03-23T16:17:21.325Z,16.98
2023-03-23T16:18:21.030Z,16.98
2023-03-23T16:19:21.023Z,16.91
2023-03-23T16:20:21.015Z,16.86
2023-03-23T16:21:21.317Z,16.82
2023-03-23T16:22:20.987Z,16.79
2023-03-23T16:23:20.973Z,16.78
2023-03-23T16:24:21.020Z,16.73
2023-03-23T16:25:20.950Z,16.75
2023-03-23T16:26:20.963Z,16.71
2023-03-23T16:27:20.927Z,16.67
2023-03-23T16:28:20.920Z,16.67
2023-03-23T16:29:36.983Z,16.64
2023-03-23T16:30:22.148Z,16.64
2023-03-23T16:31:20.994Z,16.60
2023-03-23T16:32:20.896Z,16.57
2023-03-23T16:33:20.949Z,16.56
2023-03-23T16:34:20.856Z,16.52
2023-03-23T16:35:20.836Z,16.52
2023-03-23T16:36:20.864Z,16.50
2023-03-23T16:37:20.824Z,16.48
2023-03-23T16:38:20.817Z,16.46
2023-03-23T16:39:21.073Z,16.45
2023-03-23T16:40:21.605Z,16.46
2023-03-23T16:41:20.780Z,16.46
2023-03-23T16:42:20.771Z,16.45
2023-03-23T16:43:20.776Z,16.42
2023-03-23T16:44:20.782Z,16.39
2023-03-23T16:45:20.742Z,16.39
2023-03-23T16:46:20.786Z,16.38
2023-03-23T16:47:20.714Z,16.35
2023-03-23T16:48:20.705Z,16.34
2023-03-23T16:49:20.688Z,16.31
2023-03-23T16:50:20.813Z,16.28
2023-03-23T16:51:20.678Z,16.24
2023-03-23T16:52:20.677Z,16.24
2023-03-23T16:53:20.665Z,16.21
2023-03-23T16:54:20.652Z,16.15
2023-03-23T16:55:20.620Z,16.12
2023-03-23T16:56:20.617Z,16.09
2023-03-23T16:57:20.612Z,16.07
2023-03-23T16:58:21.407Z,16.02
2023-03-23T16:59:20.597Z,15.97
2023-03-23T17:00:20.584Z,15.94
2023-03-23T17:01:20.605Z,15.92
2023-03-23T17:02:20.595Z,15.87
2023-03-23T17:03:20.676Z,15.86
2023-03-23T17:04:20.530Z,15.83
2023-03-23T17:05:20.508Z,15.80
2023-03-23T17:06:20.507Z,15.78
2023-03-23T17:07:20.629Z,15.78
2023-03-23T17:08:20.500Z,15.76
2023-03-23T17:09:20.480Z,15.78
2023-03-23T17:10:20.480Z,15.80
2023-03-23T17:11:20.460Z,15.76
2023-03-23T17:12:21.260Z,15.76
2023-03-23T17:13:20.430Z,15.74
2023-03-23T17:14:20.430Z,15.74
2023-03-23T17:15:20.419Z,15.71
2023-03-23T17:16:20.423Z,15.72
2023-03-23T17:17:20.416Z,15.71
2023-03-23T17:18:20.382Z,15.71
2023-03-23T17:19:20.357Z,15.65
2023-03-23T17:20:20.368Z,15.62
2023-03-23T17:21:20.340Z,15.59
2023-03-23T17:22:20.341Z,15.53
2023-03-23T17:23:20.339Z,15.50
2023-03-23T17:24:20.316Z,15.47
2023-03-23T17:25:20.321Z,15.38
2023-03-23T17:26:20.298Z,15.35
2023-03-23T17:27:20.279Z,15.29
2023-03-23T17:28:21.010Z,15.21
2023-03-23T17:29:20.928Z,15.16
2023-03-23T17:30:20.260Z,15.10
2023-03-23T17:31:20.425Z,15.07
2023-03-23T17:32:20.229Z,15.02
2023-03-23T17:33:20.232Z,14.96
2023-03-23T17:34:20.210Z,14.94
2023-03-23T17:35:20.431Z,14.91
2023-03-23T17:36:20.221Z,14.89
2023-03-23T17:37:20.184Z,14.88
2023-03-23T17:38:20.171Z,14.88
2023-03-23T17:39:20.155Z,14.84
2023-03-23T17:40:20.143Z,14.83
2023-03-23T17:41:20.136Z,14.81
2023-03-23T17:42:20.133Z,14.80
2023-03-23T17:43:20.118Z,14.78
2023-03-23T17:44:20.101Z,14.77
2023-03-23T17:45:20.097Z,14.72
2023-03-23T17:46:20.124Z,14.72
2023-03-23T17:47:20.087Z,14.72
2023-03-23T17:48:20.054Z,14.72
2023-03-23T17:49:20.047Z,14.72
2023-03-23T17:50:20.027Z,14.72
2023-03-23T17:51:20.040Z,14.72
2023-03-23T17:52:20.025Z,14.70
2023-03-23T17:53:20.014Z,14.69
2023-03-23T17:54:20.531Z,14.69
2023-03-23T17:55:20.007Z,14.70
2023-03-23T17:56:20.137Z,14.69
2023-03-23T17:57:20.137Z,14.69
2023-03-23T17:58:20.265Z,14.73
2023-03-23T17:59:19.939Z,14.73
2023-03-23T18:00:20.746Z,14.73
2023-03-23T18:01:19.966Z,14.75
2023-03-23T18:02:19.937Z,14.78
2023-03-23T18:03:19.970Z,14.92
2023-03-23T18:04:19.882Z,15.02
2023-03-23T18:05:19.870Z,15.19
2023-03-23T18:06:19.858Z,15.21
2023-03-23T18:07:20.211Z,15.21
2023-03-23T18:08:21.292Z,15.23
2023-03-23T18:09:19.833Z,15.25
2023-03-23T18:10:19.814Z,15.25
2023-03-23T18:11:20.018Z,15.23
2023-03-23T18:12:20.622Z,15.25
2023-03-23T18:13:19.795Z,15.20
2023-03-23T18:14:19.770Z,15.17
2023-03-23T18:15:19.765Z,15.13
2023-03-23T18:16:20.610Z,15.06
2023-03-23T18:17:19.790Z,15.02
2023-03-23T18:18:19.718Z,14.98
2023-03-23T18:19:19.737Z,14.91
2023-03-23T18:20:20.519Z,14.88
2023-03-23T18:21:20.487Z,14.84
2023-03-23T18:22:19.679Z,14.80
2023-03-23T18:23:19.764Z,14.75
2023-03-23T18:24:19.714Z,14.72
2023-03-23T18:25:20.636Z,14.68
2023-03-23T18:26:19.633Z,14.64
2023-03-23T18:27:19.638Z,14.60
2023-03-23T18:28:19.630Z,14.60
2023-03-23T18:29:19.626Z,14.58
2023-03-23T18:30:19.665Z,14.54
2023-03-23T18:31:19.679Z,14.50
2023-03-23T18:32:19.622Z,14.42
2023-03-23T18:33:20.353Z,14.37
2023-03-23T18:34:19.612Z,14.33
2023-03-23T18:35:19.597Z,14.32
2023-03-23T18:36:19.595Z,14.25
2023-03-23T18:37:19.536Z,14.22
2023-03-23T18:38:19.543Z,14.18
2023-03-23T18:39:19.544Z,14.15
2023-03-23T18:40:19.523Z,14.10
2023-03-23T18:41:19.510Z,14.03
2023-03-23T18:42:19.503Z,14.00
2023-03-23T18:43:19.638Z,13.92
2023-03-23T18:44:19.492Z,13.91
2023-03-23T18:45:19.436Z,13.89
2023-03-23T18:46:19.448Z,13.85
2023-03-23T18:47:19.443Z,13.82
2023-03-23T18:48:19.572Z,13.84
2023-03-23T18:49:20.205Z,13.81
2023-03-23T18:50:19.382Z,13.79
2023-03-23T18:51:19.428Z,13.77
2023-03-23T18:52:20.170Z,13.75
2023-03-23T18:53:20.835Z,13.71
2023-03-23T18:54:19.333Z,13.69
2023-03-23T18:55:20.868Z,13.66
2023-03-23T18:56:19.355Z,13.63
2023-03-23T18:57:20.130Z,13.59
2023-03-23T18:58:19.737Z,13.52
2023-03-23T18:59:19.287Z,13.49
2023-03-23T19:00:19.285Z,13.41
2023-03-23T19:01:19.355Z,13.38
2023-03-23T19:02:19.287Z,13.32
2023-03-23T19:03:19.336Z,13.30
2023-03-23T19:04:19.233Z,13.28
2023-03-23T19:05:19.236Z,13.25
2023-03-23T19:06:19.501Z,13.23
2023-03-23T19:07:19.215Z,13.20
2023-03-23T19:08:19.182Z,13.20
2023-03-23T19:09:19.188Z,13.17
2023-03-23T19:10:19.159Z,13.15
2023-03-23T19:11:19.184Z,13.12
2023-03-23T19:12:19.138Z,13.11
2023-03-23T19:13:19.137Z,13.07
2023-03-23T19:14:19.117Z,13.07
2023-03-23T19:15:19.128Z,13.03
2023-03-23T19:16:19.340Z,12.96
2023-03-23T19:17:19.115Z,12.95
2023-03-23T19:18:19.071Z,12.90
2023-03-23T19:19:19.072Z,12.82
2023-03-23T19:20:37.414Z,12.78
2023-03-23T19:21:24.971Z,12.72
2023-03-23T19:22:20.039Z,12.65
2023-03-23T19:23:19.032Z,12.64
2023-03-23T19:24:19.028Z,12.54
2023-03-23T19:25:19.016Z,12.53
2023-03-23T19:26:18.986Z,12.50
2023-03-23T19:27:19.007Z,12.47
2023-03-23T19:29:26.535Z,12.41
2023-03-23T19:30:19.952Z,12.37
2023-03-23T19:31:19.023Z,12.34
2023-03-23T19:32:18.937Z,12.28
2023-03-23T19:33:18.937Z,12.20
2023-03-23T19:34:18.919Z,12.14
2023-03-23T19:35:18.913Z,12.10
2023-03-23T19:36:18.977Z,12.05
2023-03-23T19:37:19.218Z,12.02
2023-03-23T19:38:18.892Z,12.01
2023-03-23T19:39:19.174Z,12.01
2023-03-23T19:40:37.535Z,11.98
2023-03-23T19:41:19.851Z,11.96
2023-03-23T19:42:18.838Z,11.94
2023-03-23T19:43:19.629Z,11.91
2023-03-23T19:44:18.809Z,11.90
2023-03-23T19:45:19.051Z,11.88
2023-03-23T19:46:18.821Z,11.88
2023-03-23T19:47:18.854Z,11.85
2023-03-23T19:48:19.267Z,11.80
2023-03-23T19:49:18.746Z,11.83
2023-03-23T19:50:18.739Z,11.85
2023-03-23T19:51:18.849Z,11.83
2023-03-23T19:52:18.965Z,11.88
2023-03-23T19:53:19.380Z,11.88
2023-03-23T19:54:18.691Z,11.86
2023-03-23T19:55:18.690Z,11.83
2023-03-23T19:56:18.669Z,11.83
2023-03-23T19:57:18.848Z,11.90
2023-03-23T19:58:18.744Z,11.90
2023-03-23T19:59:18.658Z,11.94
2023-03-23T20:00:18.619Z,11.95
2023-03-23T20:01:19.515Z,11.95
2023-03-23T20:02:18.656Z,11.94
2023-03-23T20:03:18.671Z,11.91
2023-03-23T20:04:18.598Z,11.91
2023-03-23T20:05:19.608Z,11.91
2023-03-23T20:06:18.568Z,11.86
2023-03-23T20:07:20.408Z,11.88
2023-03-23T20:08:18.547Z,11.88
2023-03-23T20:09:19.835Z,11.88
2023-03-23T20:10:18.613Z,11.90
2023-03-23T20:11:18.516Z,11.83
2023-03-23T20:12:18.512Z,11.85
2023-03-23T20:13:18.510Z,11.83
2023-03-23T20:14:18.474Z,11.83
2023-03-23T20:15:18.475Z,11.83
2023-03-23T20:16:18.469Z,11.86
2023-03-23T20:17:18.470Z,11.86
2023-03-23T20:18:18.476Z,11.88
2023-03-23T20:19:18.433Z,11.86
2023-03-23T20:20:18.418Z,11.85
2023-03-23T20:21:20.011Z,11.85
2023-03-23T20:22:18.387Z,11.86
2023-03-23T20:23:18.446Z,11.90
2023-03-23T20:24:18.384Z,11.94
2023-03-23T20:25:18.370Z,11.94
2023-03-23T20:26:18.616Z,11.96
2023-03-23T20:27:18.343Z,11.96
2023-03-23T20:28:18.329Z,12.04
2023-03-23T20:29:18.322Z,12.09
2023-03-23T20:30:18.308Z,12.12
2023-03-23T20:31:23.480Z,12.17
2023-03-23T20:32:19.286Z,12.28
2023-03-23T20:33:18.301Z,12.35
2023-03-23T20:34:18.275Z,12.45
2023-03-23T20:35:18.337Z,12.49
2023-03-23T20:36:18.281Z,12.50
2023-03-23T20:37:18.240Z,12.52
2023-03-23T20:38:18.214Z,12.50
2023-03-23T20:39:18.221Z,12.49
2023-03-23T20:40:18.200Z,12.47
2023-03-23T20:41:18.207Z,12.47
2023-03-23T20:42:18.195Z,12.45
2023-03-23T20:43:18.168Z,12.46
2023-03-23T20:44:18.157Z,12.41
2023-03-23T20:45:18.147Z,12.42
2023-03-23T20:46:18.240Z,12.46
2023-03-23T20:47:18.137Z,12.50
2023-03-23T20:48:18.121Z,12.52
2023-03-23T20:49:19.076Z,12.52
2023-03-23T20:50:18.081Z,12.52
2023-03-23T20:51:18.134Z,12.52
2023-03-23T20:52:18.072Z,12.53
2023-03-23T20:53:18.069Z,12.49
2023-03-23T20:54:18.046Z,12.47
2023-03-23T20:55:18.051Z,12.42
2023-03-23T20:56:18.032Z,12.46
2023-03-23T20:57:18.139Z,12.45
2023-03-23T20:58:18.008Z,12.39
2023-03-23T20:59:18.006Z,12.34
2023-03-23T21:00:18.165Z,12.29
2023-03-23T21:01:18.018Z,12.31
2023-03-23T21:02:17.984Z,12.27
2023-03-23T21:03:17.960Z,12.27
2023-03-23T21:04:17.953Z,12.41
2023-03-23T21:05:17.934Z,12.49
2023-03-23T21:06:17.919Z,12.54
2023-03-23T21:07:17.921Z,12.56
2023-03-23T21:08:18.254Z,12.56
2023-03-23T21:09:17.913Z,12.54
2023-03-23T21:10:17.878Z,12.52
2023-03-23T21:11:17.880Z,12.52
2023-03-23T21:12:17.854Z,12.50
2023-03-23T21:13:17.861Z,12.50
2023-03-23T21:14:17.835Z,12.49
2023-03-23T21:15:17.826Z,12.42
2023-03-23T21:16:17.811Z,12.50
2023-03-23T21:17:17.813Z,12.59
2023-03-23T21:18:17.781Z,12.64
2023-03-23T21:19:17.798Z,12.67
2023-03-23T21:20:17.768Z,12.71
2023-03-23T21:21:17.765Z,12.74
2023-03-23T21:22:17.742Z,12.72
2023-03-23T21:23:17.739Z,12.68
2023-03-23T21:24:17.725Z,12.65
2023-03-23T21:25:17.718Z,12.65
2023-03-23T21:26:17.707Z,12.64
2023-03-23T21:27:17.704Z,12.59
2023-03-23T21:28:17.683Z,12.57
2023-03-23T21:29:17.687Z,12.50
2023-03-23T21:30:17.652Z,12.54
2023-03-23T21:31:17.660Z,12.60
2023-03-23T21:32:17.651Z,12.64
2023-03-23T21:33:17.639Z,12.64
2023-03-23T21:34:17.617Z,12.70
2023-03-23T21:35:17.610Z,12.71
2023-03-23T21:36:17.592Z,12.71
2023-03-23T21:37:17.588Z,12.67
2023-03-23T21:38:17.584Z,12.60
2023-03-23T21:39:19.342Z,12.56
2023-03-23T21:40:17.584Z,12.52
2023-03-23T21:41:17.538Z,12.46
2023-03-23T21:42:17.521Z,12.38
2023-03-23T21:43:17.537Z,12.32
2023-03-23T21:44:17.493Z,12.24
2023-03-23T21:45:17.499Z,12.17
2023-03-23T21:46:17.480Z,12.10
2023-03-23T21:47:17.482Z,12.02
2023-03-23T21:48:17.457Z,11.95
2023-03-23T21:49:17.459Z,11.85
2023-03-23T21:50:19.416Z,11.80
2023-03-23T21:51:17.433Z,11.73
2023-03-23T21:52:17.417Z,11.70
2023-03-23T21:53:17.412Z,11.67
2023-03-23T21:54:17.419Z,11.58
2023-03-23T21:55:17.425Z,11.54
2023-03-23T21:56:17.374Z,11.43
2023-03-23T21:57:17.356Z,11.42
2023-03-23T21:58:17.362Z,11.36
2023-03-23T21:59:17.426Z,11.28
2023-03-23T22:00:17.343Z,11.19
2023-03-23T22:01:17.381Z,11.14
2023-03-23T22:02:17.305Z,11.09
2023-03-23T22:03:17.352Z,11.06
2023-03-23T22:04:17.291Z,11.06
2023-03-23T22:05:17.268Z,11.02
2023-03-23T22:06:17.262Z,10.99
2023-03-23T22:07:17.265Z,10.96
2023-03-23T22:08:17.253Z,10.94
2023-03-23T22:09:17.226Z,10.85
2023-03-23T22:10:17.216Z,10.81
2023-03-23T22:11:17.203Z,10.78
2023-03-23T22:12:17.196Z,10.76
2023-03-23T22:13:17.187Z,10.76
2023-03-23T22:14:17.186Z,10.73
2023-03-23T22:15:17.159Z,10.70
2023-03-23T22:16:17.278Z,10.73
2023-03-23T22:17:17.141Z,10.73
2023-03-23T22:18:17.140Z,10.74
2023-03-23T22:19:17.123Z,10.68
2023-03-23T22:20:17.115Z,10.67
2023-03-23T22:21:17.118Z,10.63
2023-03-23T22:22:17.088Z,10.61
2023-03-23T22:23:17.070Z,10.61
2023-03-23T22:24:17.069Z,10.59
2023-03-23T22:25:17.040Z,10.51
2023-03-23T22:26:17.059Z,10.55
2023-03-23T22:27:17.099Z,10.52
2023-03-23T22:28:17.066Z,10.55
2023-03-23T22:29:17.154Z,10.55
2023-03-23T22:30:17.007Z,10.59
2023-03-23T22:31:17.017Z,10.55
2023-03-23T22:32:16.990Z,10.53
2023-03-23T22:33:16.961Z,10.53
2023-03-23T22:34:16.971Z,10.48
2023-03-23T22:35:16.958Z,10.44
2023-03-23T22:36:16.989Z,10.42
2023-03-23T22:37:16.937Z,10.42
2023-03-23T22:38:16.928Z,10.40
2023-03-23T22:39:16.893Z,10.42
2023-03-23T22:40:16.897Z,10.40
2023-03-23T22:41:16.875Z,10.38
2023-03-23T22:42:16.880Z,10.38
2023-03-23T22:43:16.857Z,10.34
2023-03-23T22:44:16.870Z,10.32
2023-03-23T22:45:16.842Z,10.30
2023-03-23T22:46:16.893Z,10.26
2023-03-23T22:47:16.816Z,10.25
2023-03-23T22:48:16.830Z,10.22
2023-03-23T22:49:16.808Z,10.22
2023-03-23T22:50:16.796Z,10.23
2023-03-23T22:51:16.775Z,10.23
2023-03-23T22:52:16.768Z,10.22
2023-03-23T22:53:16.755Z,10.20
2023-03-23T22:54:16.768Z,10.20
2023-03-23T22:55:16.730Z,10.20
2023-03-23T22:56:16.731Z,10.25
2023-03-23T22:57:16.702Z,10.26
2023-03-23T22:58:16.701Z,10.27
2023-03-23T22:59:16.682Z,10.30
2023-03-23T23:00:16.701Z,10.30
2023-03-23T23:01:16.739Z,10.34
2023-03-23T23:02:16.663Z,10.34
2023-03-23T23:03:16.691Z,10.36
2023-03-23T23:04:16.692Z,10.40
2023-03-23T23:05:16.629Z,10.40
2023-03-23T23:06:16.677Z,10.42
2023-03-23T23:07:16.605Z,10.44
2023-03-23T23:08:18.020Z,10.45
2023-03-23T23:09:16.590Z,10.47
2023-03-23T23:10:16.581Z,10.55
2023-03-23T23:11:16.557Z,10.60
2023-03-23T23:12:16.554Z,10.64
2023-03-23T23:13:16.812Z,10.70
2023-03-23T23:14:16.533Z,10.71
2023-03-23T23:15:16.533Z,10.73
2023-03-23T23:16:16.572Z,10.78
2023-03-23T23:17:16.497Z,10.82
2023-03-23T23:18:16.501Z,10.84
2023-03-23T23:19:16.467Z,10.86
2023-03-23T23:20:16.534Z,10.94
2023-03-23T23:21:16.468Z,10.99
2023-03-23T23:22:19.064Z,11.02
2023-03-23T23:23:16.421Z,11.03
2023-03-23T23:24:16.419Z,11.06
2023-03-23T23:25:16.411Z,11.17
2023-03-23T23:26:16.417Z,11.40
2023-03-23T23:27:16.383Z,11.78
2023-03-23T23:28:16.376Z,11.98
2023-03-23T23:29:16.356Z,12.07
2023-03-23T23:30:17.166Z,12.21
2023-03-23T23:31:16.450Z,12.35
2023-03-23T23:32:16.329Z,12.45
2023-03-23T23:33:16.314Z,12.47
2023-03-23T23:34:16.808Z,12.57
2023-03-23T23:35:16.286Z,12.64
2023-03-23T23:36:16.293Z,12.65
2023-03-23T23:37:16.263Z,12.71
2023-03-23T23:38:16.266Z,12.72
2023-03-23T23:39:16.482Z,12.74
2023-03-23T23:40:16.260Z,12.86
2023-03-23T23:41:16.224Z,12.92
2023-03-23T23:42:16.214Z,12.87
2023-03-23T23:43:16.366Z,12.83
2023-03-23T23:44:17.008Z,12.82
2023-03-23T23:45:16.185Z,12.85
2023-03-23T23:46:16.243Z,12.86
2023-03-23T23:47:16.176Z,12.86
2023-03-23T23:48:16.162Z,12.90
2023-03-23T23:49:16.131Z,12.96
2023-03-23T23:50:16.133Z,13.01
2023-03-23T23:51:16.117Z,13.05
2023-03-23T23:52:16.116Z,13.10
2023-03-23T23:53:16.105Z,13.23
2023-03-23T23:54:16.089Z,13.23
2023-03-23T23:55:16.074Z,13.28
2023-03-23T23:56:16.063Z,13.30
2023-03-23T23:57:16.045Z,13.32
2023-03-23T23:58:16.056Z,13.32
2023-03-23T23:59:16.032Z,13.29
